Time;durP1;ratioP1;P1;durP2;ratioP2;P2;SDS_P1;SDS_P2;PMS_P1;PMS_P2;Temp;Humidity;BMP_temperature;BMP_pressure;BME280_temperature;BME280_humidity;BME280_pressure;Samples;Min_cycle;Max_cycle;Signal;HPM_P1;HPM_P2
2022/01/21 00:01:27;;;;;;;14.30;1.77;;;2.20;99.90;;;;;;5008751;28;20057;-66
2022/01/21 00:03:53;;;;;;;9.63;1.60;;;2.20;99.90;;;;;;5011351;28;20073;-66
2022/01/21 00:06:19;;;;;;;14.63;2.00;;;2.20;99.90;;;;;;5008636;28;20053;-66
2022/01/21 00:08:46;;;;;;;11.37;1.47;;;2.20;99.90;;;;;;5008318;28;20348;-66
2022/01/21 00:11:14;;;;;;;10.80;2.00;;;1.90;99.90;;;;;;5009040;28;20437;-66
2022/01/21 00:13:40;;;;;;;11.80;2.83;;;2.00;99.90;;;;;;5008511;28;20111;-66
2022/01/21 00:16:15;;;;;;;14.07;3.23;;;1.80;99.90;;;;;;5008734;28;20034;-66
2022/01/21 00:18:54;;;;;;;9.67;1.63;;;1.80;99.90;;;;;;5008086;28;20061;-66
2022/01/21 00:32:17;;;;;;;8.23;1.37;;;;;;;;;;5021260;28;19992;-66
2022/01/21 00:34:42;;;;;;;8.87;1.33;;;1.50;99.90;;;;;;4989842;28;20424;-66
2022/01/21 00:37:08;;;;;;;7.73;1.43;;;;;;;;;;5008488;28;20030;-66
2022/01/21 00:39:35;;;;;;;11.63;2.10;;;1.50;99.90;;;;;;5011326;28;20695;-67
2022/01/21 00:42:14;;;;;;;11.57;2.13;;;1.60;99.90;;;;;;5008451;28;20038;-66
2022/01/21 00:44:40;;;;;;;10.07;1.93;;;1.70;99.90;;;;;;5007342;28;20060;-66
2022/01/21 00:47:07;;;;;;;11.93;3.67;;;1.70;99.90;;;;;;5008415;28;20131;-66
2022/01/21 00:49:33;;;;;;;12.83;2.17;;;1.60;99.90;;;;;;5007246;28;20045;-65
2022/01/21 00:51:59;;;;;;;8.77;1.40;;;;;;;;;;5008288;28;20018;-66
2022/01/21 00:54:25;;;;;;;10.43;1.50;;;;;;;;;;5014175;28;20044;-66
2022/01/21 00:56:51;;;;;;;8.17;2.17;;;1.90;99.90;;;;;;5007762;28;20058;-66
2022/01/21 00:59:16;;;;;;;6.30;1.60;;;1.10;99.90;;;;;;5008488;28;20104;-66
2022/01/21 01:01:42;;;;;;;19.80;2.23;;;1.40;99.90;;;;;;4989255;28;20034;-66
2022/01/21 01:04:08;;;;;;;15.80;1.87;;;;;;;;;;5007144;28;20050;-66
2022/01/21 01:06:34;;;;;;;8.63;2.40;;;1.40;99.90;;;;;;5005671;28;20404;-66
2022/01/21 01:09:00;;;;;;;12.63;2.33;;;;;;;;;;5006088;28;20120;-67
2022/01/21 01:11:43;;;;;;;9.60;1.93;;;1.30;99.90;;;;;;5006087;28;20056;-66
2022/01/21 01:19:57;;;;;;;10.23;2.05;;;1.20;99.90;;;;;;5006378;28;20307;-66
2022/01/21 01:22:38;;;;;;;4.97;1.23;;;1.50;99.90;;;;;;5002715;28;20433;-66
2022/01/21 01:27:48;;;;;;;11.13;2.33;;;1.50;99.90;;;;;;5026867;28;20056;-66
2022/01/21 01:30:16;;;;;;;9.97;1.53;;;2.00;99.90;;;;;;5026674;28;20045;-66
2022/01/21 01:32:46;;;;;;;11.30;2.20;;;1.50;99.90;;;;;;5025737;28;20026;-67
2022/01/21 01:35:14;;;;;;;15.53;2.80;;;1.50;99.90;;;;;;5009100;28;20100;-67
2022/01/21 01:40:28;;;;;;;;;;;1.40;99.90;;;;;;5008101;28;20395;-66
2022/01/21 01:51:12;;;;;;;12.23;2.47;;;1.40;99.90;;;;;;5021273;28;20041;-67
2022/01/21 01:53:45;;;;;;;9.40;2.20;;;1.30;99.90;;;;;;5008311;28;20022;-67
2022/01/21 01:56:13;;;;;;;12.63;2.10;;;1.50;99.90;;;;;;5028359;28;20112;-67
2022/01/21 01:58:41;;;;;;;11.53;2.83;;;1.40;99.90;;;;;;5029783;28;20103;-66
2022/01/21 02:01:07;;;;;;;13.33;3.50;;;1.30;99.90;;;;;;5011446;28;20175;-67
2022/01/21 02:03:34;;;;;;;8.60;3.07;;;1.30;99.90;;;;;;5029518;28;20025;-67
2022/01/21 02:06:00;;;;;;;12.93;3.07;;;1.40;99.90;;;;;;5029298;28;20026;-67
2022/01/21 02:08:27;;;;;;;13.60;4.10;;;1.40;99.90;;;;;;5021574;28;20044;-67
2022/01/21 02:10:52;;;;;;;13.53;4.17;;;1.80;99.90;;;;;;5010739;28;20540;-67
2022/01/21 02:13:21;;;;;;;11.57;3.53;;;1.40;99.90;;;;;;5010960;28;20049;-67
2022/01/21 02:15:56;;;;;;;16.57;4.17;;;1.60;99.90;;;;;;4992222;28;20413;-66
2022/01/21 02:21:34;;;;;;;;;;;2.50;99.90;;;;;;5011188;28;20087;-67
2022/01/21 02:24:06;;;;;;;12.80;2.57;;;1.50;99.90;;;;;;5017129;28;19921;-67
2022/01/21 02:26:32;;;;;;;12.60;2.00;;;;;;;;;;5010229;28;20497;-67
2022/01/21 02:29:00;;;;;;;17.03;2.50;;;1.60;99.90;;;;;;5010396;28;20026;-66
2022/01/21 02:31:26;;;;;;;16.47;2.23;;;1.50;99.90;;;;;;5010050;28;20161;-67
2022/01/21 02:33:51;;;;;;;11.00;2.00;;;1.70;99.90;;;;;;5010260;28;20034;-67
2022/01/21 02:36:17;;;;;;;12.13;1.43;;;1.70;99.90;;;;;;5011910;28;20030;-67
2022/01/21 02:38:43;;;;;;;9.97;1.17;;;1.60;99.90;;;;;;5014991;28;20461;-67
2022/01/21 02:41:08;;;;;;;12.83;2.37;;;1.40;99.90;;;;;;5010968;28;20113;-67
2022/01/21 02:43:34;;;;;;;7.73;1.90;;;;;;;;;;5009687;28;20026;-67
2022/01/21 02:46:04;;;;;;;9.77;1.60;;;1.50;99.90;;;;;;5009943;28;20055;-67
2022/01/21 02:48:34;;;;;;;8.37;1.23;;;1.30;99.90;;;;;;5009696;28;20467;-67
2022/01/21 02:51:00;;;;;;;13.70;2.10;;;1.40;99.90;;;;;;5010241;28;20029;-67
2022/01/21 02:53:38;;;;;;;13.33;2.40;;;;;;;;;;5010597;28;20034;-67
2022/01/21 02:56:05;;;;;;;14.30;2.97;;;1.40;99.90;;;;;;5014172;28;20463;-67
2022/01/21 02:58:32;;;;;;;12.17;1.50;;;1.40;99.90;;;;;;5009462;28;20076;-67
2022/01/21 03:00:57;;;;;;;8.47;1.37;;;1.40;99.90;;;;;;5009472;28;20080;-67
2022/01/21 03:03:23;;;;;;;9.13;1.57;;;1.70;99.90;;;;;;5009843;28;20030;-67
2022/01/21 03:05:49;;;;;;;11.33;1.70;;;1.10;99.90;;;;;;4992013;28;20120;-67
2022/01/21 03:08:15;;;;;;;15.97;1.60;;;1.20;99.90;;;;;;5011908;28;20022;-67
2022/01/21 03:10:41;;;;;;;15.97;2.10;;;;;;;;;;5009370;28;20037;-67
2022/01/21 03:13:06;;;;;;;10.70;1.33;;;0.90;99.90;;;;;;5009584;28;20064;-67
2022/01/21 03:15:32;;;;;;;11.97;2.07;;;1.10;99.90;;;;;;5008768;28;20102;-67
2022/01/21 03:17:58;;;;;;;10.53;1.30;;;1.00;99.90;;;;;;5009715;28;20022;-67
2022/01/21 03:20:23;;;;;;;7.03;1.13;;;0.60;99.90;;;;;;5009476;28;20022;-67
2022/01/21 03:22:49;;;;;;;5.67;1.93;;;1.10;99.90;;;;;;5015311;28;20036;-67
2022/01/21 03:25:14;;;;;;;12.73;2.07;;;0.80;99.90;;;;;;5010245;28;20029;-67
2022/01/21 03:27:40;;;;;;;5.87;1.47;;;1.50;99.90;;;;;;5008765;28;20391;-67
2022/01/21 03:30:08;;;;;;;9.60;1.07;;;0.80;99.90;;;;;;5008906;28;20033;-67
2022/01/21 03:32:34;;;;;;;8.47;1.73;;;0.90;99.90;;;;;;5009179;28;20168;-67
2022/01/21 03:35:00;;;;;;;4.20;1.20;;;0.70;99.90;;;;;;5009551;28;20029;-67
2022/01/21 03:37:26;;;;;;;11.60;1.40;;;0.70;99.90;;;;;;5014078;28;20331;-67
2022/01/21 03:39:51;;;;;;;13.10;1.60;;;0.70;99.90;;;;;;5009117;28;20026;-67
2022/01/21 03:42:17;;;;;;;12.47;1.27;;;0.50;99.90;;;;;;5009384;28;20076;-67
2022/01/21 03:44:42;;;;;;;12.03;2.17;;;0.50;99.90;;;;;;5008397;28;20026;-67
2022/01/21 03:47:08;;;;;;;11.10;1.43;;;;;;;;;;5012130;28;20036;-67
2022/01/21 03:49:40;;;;;;;17.43;2.00;;;0.70;99.90;;;;;;5011498;28;20092;-67
2022/01/21 03:52:08;;;;;;;15.87;2.43;;;0.40;99.90;;;;;;5009195;28;20022;-67
2022/01/21 03:54:36;;;;;;;10.37;1.70;;;0.50;99.90;;;;;;5008817;28;20028;-66
2022/01/21 03:57:02;;;;;;;11.27;1.57;;;0.50;99.90;;;;;;5010618;28;20045;-66
2022/01/21 03:59:28;;;;;;;11.03;2.73;;;;;;;;;;5010893;28;20025;-66
2022/01/21 04:01:56;;;;;;;10.13;2.40;;;0.50;99.90;;;;;;5009067;28;20049;-66
2022/01/21 04:04:22;;;;;;;11.10;2.00;;;;;;;;;;5009205;28;20050;-66
2022/01/21 04:06:48;;;;;;;12.80;3.17;;;;;;;;;;5008602;28;20375;-66
2022/01/21 04:09:15;;;;;;;9.93;2.80;;;0.40;99.90;;;;;;5009070;28;20418;-67
2022/01/21 04:11:41;;;;;;;16.90;2.40;;;;;;;;;;5007846;28;20022;-67
2022/01/21 04:14:07;;;;;;;10.83;1.57;;;;;;;;;;5011892;28;20057;-67
2022/01/21 04:16:32;;;;;;;13.43;2.03;;;0.40;99.90;;;;;;5008485;28;20030;-67
2022/01/21 04:18:58;;;;;;;10.10;2.27;;;;;;;;;;5007930;28;20048;-67
2022/01/21 04:21:24;;;;;;;7.70;2.33;;;0.40;99.90;;;;;;5014034;28;20249;-66
2022/01/21 04:23:49;;;;;;;14.67;2.13;;;0.30;99.90;;;;;;5007649;28;20478;-67
2022/01/21 04:26:15;;;;;;;11.27;2.63;;;0.50;99.90;;;;;;5008705;28;20037;-67
2022/01/21 04:28:41;;;;;;;5.03;1.93;;;;;;;;;;5027105;28;20263;-67
2022/01/21 04:31:06;;;;;;;6.03;1.70;;;0.60;99.90;;;;;;5027551;28;20056;-67
2022/01/21 04:33:32;;;;;;;10.20;3.03;;;0.60;99.90;;;;;;5001751;28;20022;-67
2022/01/21 04:35:58;;;;;;;17.77;3.77;;;;;;;;;;5008672;28;20038;-67
2022/01/21 04:38:25;;;;;;;11.47;2.73;;;0.50;99.90;;;;;;5008253;28;20427;-66
2022/01/21 04:40:59;;;;;;;10.60;1.87;;;0.20;99.90;;;;;;5007562;28;20052;-66
2022/01/21 04:48:53;;;;;;;;;;;0.60;99.90;;;;;;5012333;28;20095;-66
2022/01/21 04:51:25;;;;;;;6.80;1.70;;;;;;;;;;5006875;28;19917;-66
2022/01/21 04:53:51;;;;;;;8.63;1.50;;;0.60;99.90;;;;;;5026742;28;20409;-66
2022/01/21 04:56:17;;;;;;;19.47;2.93;;;0.40;99.90;;;;;;5026581;28;20033;-66
2022/01/21 04:58:44;;;;;;;16.50;2.50;;;0.40;99.90;;;;;;5025360;28;20040;-67
2022/01/21 05:01:10;;;;;;;12.73;2.13;;;0.60;99.90;;;;;;5027156;28;20604;-67
2022/01/21 05:03:38;;;;;;;12.40;2.67;;;0.50;99.90;;;;;;5008504;28;20109;-66
2022/01/21 05:06:04;;;;;;;14.73;2.07;;;0.60;99.90;;;;;;5008246;28;20047;-67
2022/01/21 05:08:45;;;;;;;13.40;1.60;;;;;;;;;;5013310;28;20022;-67
2022/01/21 05:11:13;;;;;;;15.87;2.03;;;0.40;99.90;;;;;;5020924;28;20041;-67
2022/01/21 05:13:43;;;;;;;14.13;3.17;;;;;;;;;;5026552;28;20144;-66
2022/01/21 05:16:28;;;;;;;12.40;2.40;;;0.40;99.90;;;;;;5026060;28;20179;-67
2022/01/21 05:19:01;;;;;;;10.57;2.87;;;0.70;99.90;;;;;;5008207;28;20025;-66
2022/01/21 05:21:27;;;;;;;9.33;2.13;;;;;;;;;;5007834;28;20029;-67
2022/01/21 05:23:52;;;;;;;9.87;1.43;;;0.60;99.90;;;;;;5008141;28;20026;-67
2022/01/21 05:26:18;;;;;;;13.87;1.57;;;;;;;;;;5007816;28;20063;-67
2022/01/21 05:28:44;;;;;;;11.73;2.07;;;0.50;99.90;;;;;;5007264;28;20026;-67
2022/01/21 05:31:10;;;;;;;13.67;2.73;;;;;;;;;;5010045;28;20042;-66
2022/01/21 05:33:35;;;;;;;9.07;3.13;;;0.50;99.90;;;;;;5015356;28;20033;-66
2022/01/21 05:36:01;;;;;;;6.17;1.40;;;0.60;99.90;;;;;;5011849;28;20380;-67
2022/01/21 05:38:27;;;;;;;9.00;1.07;;;;;;;;;;5011200;28;20037;-67
2022/01/21 05:40:52;;;;;;;5.77;1.50;;;0.70;99.90;;;;;;5010920;28;20026;-66
2022/01/21 05:43:18;;;;;;;5.07;1.90;;;0.80;99.90;;;;;;5011798;28;20026;-67
2022/01/21 05:48:28;;;;;;;2.60;1.02;;;;;;;;;;5012222;28;20072;-67
2022/01/21 05:50:54;;;;;;;7.17;1.23;;;0.80;99.90;;;;;;5011389;28;20042;-66
2022/01/21 05:53:22;;;;;;;10.00;1.10;;;0.80;99.90;;;;;;5010959;28;20056;-66
2022/01/21 05:55:48;;;;;;;11.07;2.40;;;;;;;;;;5010990;28;20022;-66
2022/01/21 05:58:14;;;;;;;6.27;1.03;;;0.70;99.90;;;;;;5011552;28;20026;-67
2022/01/21 06:00:42;;;;;;;5.43;1.73;;;0.70;99.90;;;;;;5010875;28;20022;-66
2022/01/21 06:03:08;;;;;;;7.33;1.33;;;0.70;99.90;;;;;;5013757;28;20033;-67
2022/01/21 06:05:34;;;;;;;8.23;1.40;;;0.80;99.90;;;;;;5014535;28;20103;-67
2022/01/21 06:08:01;;;;;;;16.77;1.60;;;0.80;99.90;;;;;;5010439;28;20022;-67
2022/01/21 06:10:27;;;;;;;6.90;1.30;;;;;;;;;;5010640;28;20037;-67
2022/01/21 06:12:53;;;;;;;7.83;1.10;;;;;;;;;;5010770;28;20065;-67
2022/01/21 06:15:19;;;;;;;4.53;1.03;;;0.80;99.90;;;;;;5011343;28;20038;-67
2022/01/21 06:17:44;;;;;;;3.87;1.07;;;;;;;;;;5010301;28;20347;-66
2022/01/21 06:20:11;;;;;;;5.00;1.40;;;0.70;99.90;;;;;;5013484;28;20025;-67
2022/01/21 06:22:36;;;;;;;11.00;1.40;;;0.90;99.90;;;;;;5009509;28;20076;-67
2022/01/21 06:25:03;;;;;;;9.97;1.60;;;0.60;99.90;;;;;;5010564;28;20483;-67
2022/01/21 06:27:31;;;;;;;6.13;1.40;;;0.90;99.90;;;;;;5010266;28;20030;-67
2022/01/21 06:29:56;;;;;;;5.07;1.20;;;0.80;99.90;;;;;;5010522;28;20045;-67
2022/01/21 06:32:22;;;;;;;10.27;1.10;;;;;;;;;;5010773;28;20386;-67
2022/01/21 06:34:48;;;;;;;11.50;2.57;;;0.80;99.90;;;;;;5018948;28;20041;-67
2022/01/21 06:37:13;;;;;;;5.07;1.70;;;1.00;99.90;;;;;;5009974;28;20395;-67
2022/01/21 06:39:39;;;;;;;10.07;1.27;;;1.40;99.90;;;;;;5009985;28;20021;-67
2022/01/21 06:42:05;;;;;;;7.50;2.00;;;0.90;99.90;;;;;;5009550;28;20022;-67
2022/01/21 06:44:31;;;;;;;8.30;1.43;;;;;;;;;;5010050;28;20112;-67
2022/01/21 06:46:56;;;;;;;5.13;0.93;;;1.00;99.90;;;;;;5010303;28;20073;-67
2022/01/21 06:49:22;;;;;;;5.93;1.30;;;;;;;;;;4998666;28;20125;-67
2022/01/21 06:51:48;;;;;;;4.57;1.27;;;;;;;;;;5009630;28;20096;-67
2022/01/21 06:54:14;;;;;;;5.47;1.57;;;;;;;;;;5010579;28;20026;-67
2022/01/21 06:56:40;;;;;;;6.67;1.50;;;0.90;99.90;;;;;;4992156;28;20030;-67
2022/01/21 06:59:05;;;;;;;9.70;2.63;;;0.90;99.90;;;;;;5010266;28;20025;-67
2022/01/21 07:01:31;;;;;;;9.83;1.90;;;1.50;99.90;;;;;;5009614;28;20026;-67
2022/01/21 07:03:56;;;;;;;10.50;2.00;;;1.00;99.90;;;;;;4996966;28;20014;-67
2022/01/21 07:06:22;;;;;;;8.10;2.83;;;;;;;;;;5009662;28;20030;-67
2022/01/21 07:08:48;;;;;;;8.37;1.57;;;;;;;;;;5018470;28;20307;-66
2022/01/21 07:11:14;;;;;;;7.60;1.73;;;;;;;;;;5017400;28;20437;-66
2022/01/21 07:13:40;;;;;;;8.73;2.07;;;1.20;99.90;;;;;;5019637;28;20157;-66
2022/01/21 07:16:06;;;;;;;10.63;1.80;;;1.30;99.90;;;;;;5009873;28;20049;-67
2022/01/21 07:18:32;;;;;;;9.93;1.63;;;1.20;99.90;;;;;;5009230;28;20147;-66
2022/01/21 07:20:57;;;;;;;12.03;1.77;;;;;;;;;;5010304;28;20133;-66
2022/01/21 07:23:23;;;;;;;9.53;2.30;;;;;;;;;;5009538;28;20033;-66
2022/01/21 07:25:49;;;;;;;21.63;3.33;;;1.40;99.90;;;;;;5009337;28;20372;-66
2022/01/21 07:28:15;;;;;;;9.83;1.60;;;;;;;;;;5009630;28;20033;-66
2022/01/21 07:30:41;;;;;;;13.90;2.13;;;1.40;99.90;;;;;;5008792;28;20119;-66
2022/01/21 07:33:08;;;;;;;12.63;2.10;;;;;;;;;;5009225;28;20022;-70
2022/01/21 07:35:34;;;;;;;5.53;1.90;;;;;;;;;;5008368;28;20029;-69
2022/01/21 07:38:01;;;;;;;10.23;1.87;;;;;;;;;;5009078;28;20497;-69
2022/01/21 07:40:27;;;;;;;11.30;3.17;;;;;;;;;;5021261;28;20026;-69
2022/01/21 07:42:52;;;;;;;11.53;2.90;;;1.50;99.90;;;;;;5010935;28;20030;-69
2022/01/21 07:45:18;;;;;;;11.23;2.93;;;1.70;99.90;;;;;;5011624;28;20040;-69
2022/01/21 07:47:44;;;;;;;9.70;2.30;;;;;;;;;;5008143;28;20026;-69
2022/01/21 07:50:10;;;;;;;10.63;3.60;;;;;;;;;;5027841;28;20215;-69
2022/01/21 07:52:36;;;;;;;9.47;3.40;;;;;;;;;;5027382;28;20083;-69
2022/01/21 07:55:01;;;;;;;11.17;3.03;;;1.40;99.90;;;;;;5027759;28;20022;-70
2022/01/21 07:57:27;;;;;;;11.87;3.27;;;;;;;;;;5027412;28;20026;-70
2022/01/21 07:59:53;;;;;;;13.30;3.03;;;;;;;;;;5009518;28;20030;-70
2022/01/21 08:02:19;;;;;;;10.70;2.87;;;;;;;;;;5008867;28;20030;-70
2022/01/21 08:04:45;;;;;;;14.73;4.13;;;1.40;99.90;;;;;;4990135;28;20073;-70
2022/01/21 08:07:11;;;;;;;11.03;3.63;;;;;;;;;;5008614;28;20084;-70
2022/01/21 08:09:37;;;;;;;8.17;2.60;;;;;;;;;;5008382;28;20125;-70
2022/01/21 08:12:03;;;;;;;9.13;3.00;;;1.30;99.90;;;;;;5008562;28;20546;-70
2022/01/21 08:14:29;;;;;;;12.97;3.70;;;;;;;;;;5014856;28;20399;-70
2022/01/21 08:16:55;;;;;;;9.80;3.13;;;1.00;99.90;;;;;;5013744;28;20041;-70
2022/01/21 08:19:21;;;;;;;12.33;3.33;;;1.10;99.90;;;;;;5014823;28;20423;-71
2022/01/21 08:21:47;;;;;;;12.40;2.93;;;;;;;;;;5010081;28;20056;-70
2022/01/21 08:24:13;;;;;;;14.53;3.03;;;1.00;99.90;;;;;;4989838;28;20070;-70
2022/01/21 08:26:38;;;;;;;11.07;3.20;;;1.00;99.90;;;;;;5008002;28;20048;-72
2022/01/21 08:29:05;;;;;;;9.40;3.97;;;1.20;99.90;;;;;;5008818;28;20375;-72
2022/01/21 08:31:32;;;;;;;9.17;2.93;;;1.10;99.90;;;;;;5007772;28;20033;-71
2022/01/21 08:33:57;;;;;;;12.70;3.97;;;1.10;99.90;;;;;;5007654;28;20451;-71
2022/01/21 08:36:25;;;;;;;17.53;4.00;;;1.30;99.90;;;;;;5008030;28;20042;-72
2022/01/21 08:38:51;;;;;;;11.83;3.27;;;1.40;99.90;;;;;;5007985;28;20032;-71
2022/01/21 08:41:17;;;;;;;25.20;4.93;;;1.20;99.90;;;;;;5008536;28;20368;-71
2022/01/21 08:43:43;;;;;;;11.20;4.80;;;;;;;;;;5008054;28;20044;-71
2022/01/21 08:46:10;;;;;;;9.03;3.53;;;1.60;99.90;;;;;;5009837;28;20029;-71
2022/01/21 08:48:36;;;;;;;13.03;3.87;;;;;;;;;;5007373;28;20037;-71
2022/01/21 08:51:08;;;;;;;14.30;4.70;;;1.40;99.90;;;;;;4990385;28;20041;-71
2022/01/21 08:53:42;;;;;;;14.53;5.37;;;1.50;99.90;;;;;;5007868;28;20471;-71
2022/01/21 08:56:11;;;;;;;14.05;4.18;;;1.60;99.90;;;;;;4990450;28;20091;-71
2022/01/21 08:58:37;;;;;;;14.37;5.20;;;;;;;;;;5007541;28;20037;-71
2022/01/21 09:01:03;;;;;;;16.77;5.07;;;1.60;99.90;;;;;;5008341;28;20033;-71
2022/01/21 09:03:30;;;;;;;21.47;5.50;;;1.40;99.90;;;;;;5006788;28;20029;-71
2022/01/21 09:05:56;;;;;;;13.37;6.07;;;;;;;;;;5007073;28;20036;-71
2022/01/21 09:08:24;;;;;;;13.97;6.57;;;1.70;99.90;;;;;;4993063;28;20366;-71
2022/01/21 09:10:50;;;;;;;13.67;5.37;;;1.60;99.90;;;;;;5013740;28;20147;-72
2022/01/21 09:13:16;;;;;;;13.43;5.70;;;1.90;99.90;;;;;;5011749;28;20244;-71
2022/01/21 09:15:42;;;;;;;14.07;6.73;;;2.00;99.90;;;;;;5007057;28;20577;-72
2022/01/21 09:18:08;;;;;;;18.13;7.00;;;2.20;99.90;;;;;;5007672;28;20033;-71
2022/01/21 09:20:36;;;;;;;12.23;6.03;;;2.40;99.90;;;;;;5007279;28;20076;-71
2022/01/21 09:23:03;;;;;;;16.33;7.47;;;2.50;99.90;;;;;;5022325;28;20490;-71
2022/01/21 09:25:29;;;;;;;19.90;6.73;;;;;;;;;;5025644;28;20055;-71
2022/01/21 09:27:55;;;;;;;15.70;6.87;;;2.80;99.90;;;;;;5020371;28;20026;-71
2022/01/21 09:30:21;;;;;;;10.50;7.00;;;;;;;;;;5026254;28;20052;-72
2022/01/21 09:32:47;;;;;;;16.40;7.17;;;2.80;99.90;;;;;;5025849;28;20040;-71
2022/01/21 09:35:13;;;;;;;12.03;6.60;;;;;;;;;;5027068;28;20072;-71
2022/01/21 09:37:39;;;;;;;15.50;7.57;;;;;;;;;;5022980;28;20529;-71
2022/01/21 09:40:06;;;;;;;20.20;7.60;;;2.80;99.90;;;;;;5009065;28;20371;-71
2022/01/21 09:42:36;;;;;;;21.80;9.50;;;2.70;99.90;;;;;;5007403;28;20033;-71
2022/01/21 09:45:08;;;;;;;13.07;7.97;;;2.70;99.90;;;;;;5019080;28;20427;-71
2022/01/21 09:47:44;;;;;;;19.13;9.20;;;2.40;99.90;;;;;;5023198;28;20022;-71
2022/01/21 09:50:10;;;;;;;18.33;8.27;;;2.60;99.90;;;;;;5023480;28;20048;-72
2022/01/21 09:52:37;;;;;;;13.03;7.37;;;2.60;99.90;;;;;;5025821;28;20355;-71
2022/01/21 09:55:04;;;;;;;19.17;7.40;;;2.60;99.90;;;;;;5026678;28;20119;-71
2022/01/21 09:57:30;;;;;;;13.10;6.60;;;2.70;99.90;;;;;;5022766;28;20033;-71
2022/01/21 09:59:56;;;;;;;19.00;7.23;;;;;;;;;;5008822;28;20168;-71
2022/01/21 10:02:27;;;;;;;18.63;7.70;;;2.80;99.90;;;;;;5007886;28;20487;-71
2022/01/21 10:04:53;;;;;;;14.90;6.77;;;2.80;99.90;;;;;;5023289;28;20099;-71
2022/01/21 10:07:20;;;;;;;11.77;5.37;;;2.80;99.90;;;;;;5023919;28;20077;-71
2022/01/21 10:09:48;;;;;;;8.40;5.23;;;2.90;99.90;;;;;;5026282;28;20037;-72
2022/01/21 10:12:14;;;;;;;14.90;6.27;;;2.80;99.90;;;;;;5018912;28;20072;-71
2022/01/21 10:14:40;;;;;;;11.17;6.93;;;3.00;99.90;;;;;;5008017;28;20561;-71
2022/01/21 10:17:06;;;;;;;13.50;7.07;;;3.10;99.90;;;;;;5007767;28;20764;-71
2022/01/21 10:19:33;;;;;;;13.47;6.70;;;3.10;99.90;;;;;;5010490;28;20030;-71
2022/01/21 10:22:13;;;;;;;13.47;6.10;;;3.20;99.90;;;;;;5010925;28;20061;-72
2022/01/21 10:25:00;;;;;;;12.27;5.57;;;3.20;99.90;;;;;;5010158;28;20018;-71
2022/01/21 10:27:33;;;;;;;13.33;5.43;;;3.10;99.90;;;;;;5012810;28;20042;-72
2022/01/21 10:30:00;;;;;;;13.90;4.83;;;3.50;99.90;;;;;;5010182;28;20107;-72
2022/01/21 10:32:36;;;;;;;12.03;7.07;;;3.80;99.90;;;;;;5010892;28;20030;-71
2022/01/21 10:35:02;;;;;;;13.93;5.43;;;3.80;99.90;;;;;;5022957;28;20036;-72
2022/01/21 10:37:36;;;;;;;18.07;6.37;;;4.00;99.90;;;;;;5029103;28;20021;-71
2022/01/21 10:40:05;;;;;;;11.25;6.88;;;4.10;99.90;;;;;;5011632;28;20471;-72
2022/01/21 10:42:31;;;;;;;10.13;4.77;;;4.20;99.90;;;;;;5010881;28;20026;-72
2022/01/21 10:44:59;;;;;;;21.13;4.17;;;4.30;99.90;;;;;;5018390;28;20033;-72
2022/01/21 10:47:28;;;;;;;18.83;5.20;;;4.50;99.90;;;;;;5009721;28;20470;-72
2022/01/21 10:50:00;;;;;;;10.83;4.03;;;4.60;99.90;;;;;;5010170;28;20399;-70
2022/01/21 10:52:55;;;;;;;21.03;4.60;;;4.60;99.90;;;;;;5010259;28;20022;-71
2022/01/21 10:55:32;;;;;;;;;;;4.50;99.90;;;;;;4986214;28;20068;-71
2022/01/21 10:58:08;;;;;;;16.43;5.23;;;4.70;99.90;;;;;;5014487;28;20412;-70
2022/01/21 11:00:34;;;;;;;17.40;5.77;;;4.80;99.90;;;;;;5016440;28;20044;-70
2022/01/21 11:03:14;;;;;;;10.33;4.17;;;4.80;99.90;;;;;;5028120;28;20127;-70
2022/01/21 11:05:45;;;;;;;14.40;4.93;;;;;;;;;;5015681;28;20497;-70
2022/01/21 11:08:12;;;;;;;13.67;5.17;;;5.00;99.90;;;;;;5010249;28;20018;-70
2022/01/21 11:10:43;;;;;;;9.83;4.07;;;5.10;99.90;;;;;;5012241;28;20121;-70
2022/01/21 11:13:20;;;;;;;14.90;4.63;;;5.40;99.90;;;;;;5009562;28;20164;-71
2022/01/21 11:15:47;;;;;;;9.10;3.53;;;;;;;;;;5009274;28;20026;-70
2022/01/21 11:18:16;;;;;;;15.33;5.27;;;5.50;99.90;;;;;;5009976;28;20156;-70
2022/01/21 11:20:45;;;;;;;11.27;4.20;;;5.40;99.90;;;;;;5010349;28;20022;-70
2022/01/21 11:23:11;;;;;;;12.70;3.93;;;5.30;99.90;;;;;;5002086;28;20029;-70
2022/01/21 11:25:48;;;;;;;16.00;4.47;;;5.50;99.90;;;;;;5025337;28;20482;-70
2022/01/21 11:28:15;;;;;;;17.43;4.97;;;5.60;99.90;;;;;;5025936;28;20052;-70
2022/01/21 11:30:41;;;;;;;11.90;4.20;;;5.40;99.90;;;;;;5018299;28;20037;-70
2022/01/21 11:33:07;;;;;;;13.97;4.60;;;5.80;99.90;;;;;;5012242;28;20026;-70
2022/01/21 11:35:34;;;;;;;17.50;4.40;;;5.50;99.90;;;;;;5009889;28;20118;-70
2022/01/21 11:38:04;;;;;;;21.03;4.63;;;5.70;99.90;;;;;;5009255;28;20383;-71
2022/01/21 11:40:30;;;;;;;12.43;4.07;;;5.60;99.90;;;;;;5008800;28;20026;-71
2022/01/21 11:42:57;;;;;;;17.07;4.53;;;5.90;99.90;;;;;;5009024;28;20109;-70
2022/01/21 11:50:38;;;;;;;14.57;3.33;;;6.00;99.90;;;;;;5027351;28;20093;-70
2022/01/21 11:53:07;;;;;;;18.53;3.17;;;5.70;99.90;;;;;;5009212;28;20416;-70
2022/01/21 11:55:36;;;;;;;16.73;3.43;;;6.10;99.90;;;;;;5008117;28;20022;-69
2022/01/21 11:58:17;;;;;;;11.73;3.57;;;6.10;99.90;;;;;;5008482;28;20156;-69
2022/01/21 12:00:44;;;;;;;14.20;2.93;;;6.00;99.90;;;;;;5008672;28;20034;-69
2022/01/21 12:03:09;;;;;;;13.13;2.83;;;6.20;99.90;;;;;;5009289;28;20101;-68
2022/01/21 12:05:35;;;;;;;12.43;3.60;;;5.90;99.90;;;;;;5008723;28;20133;-68
2022/01/21 12:08:04;;;;;;;11.33;4.10;;;;;;;;;;5008949;28;20092;-68
2022/01/21 12:10:33;;;;;;;10.03;2.43;;;6.40;99.90;;;;;;5010897;28;20029;-68
2022/01/21 12:13:04;;;;;;;10.77;3.10;;;6.40;99.90;;;;;;5010394;28;20459;-68
2022/01/21 12:15:52;;;;;;;25.53;3.60;;;;;;;;;;5008882;28;20045;-68
2022/01/21 12:20:54;;;;;;;12.15;3.03;;;6.20;99.90;;;;;;5008846;28;20479;-69
2022/01/21 12:23:21;;;;;;;13.93;3.47;;;6.60;99.90;;;;;;4991210;28;20387;-69
2022/01/21 12:26:09;;;;;;;12.70;3.00;;;6.40;99.90;;;;;;5012147;28;20040;-69
2022/01/21 12:28:36;;;;;;;23.03;3.53;;;6.40;99.90;;;;;;5008486;28;20494;-69
2022/01/21 12:31:03;;;;;;;15.97;3.50;;;6.60;99.90;;;;;;5008730;28;20041;-69
2022/01/21 12:34:06;;;;;;;10.47;2.70;;;6.70;99.90;;;;;;4990679;28;20550;-69
2022/01/21 12:36:44;;;;;;;18.17;3.53;;;6.80;99.90;;;;;;5021089;28;20021;-69
2022/01/21 12:39:41;;;;;;;24.73;3.53;;;6.70;99.90;;;;;;5026529;28;20021;-70
2022/01/21 12:42:24;;;;;;;14.50;3.03;;;6.60;99.90;;;;;;5015277;28;20046;-69
2022/01/21 12:44:52;;;;;;;16.60;2.63;;;6.80;99.90;;;;;;5021830;28;20033;-69
2022/01/21 12:47:41;;;;;;;9.40;3.10;;;6.70;99.90;;;;;;5027815;28;20025;-70
2022/01/21 12:50:14;;;;;;;16.53;3.27;;;6.70;99.90;;;;;;5024297;28;20041;-69
2022/01/21 12:52:48;;;;;;;16.53;3.20;;;6.60;99.90;;;;;;5026179;28;20427;-70
2022/01/21 12:55:55;;;;;;;7.07;2.03;;;6.70;99.90;;;;;;5026507;28;20486;-69
2022/01/21 12:58:32;;;;;;;10.07;3.83;;;6.80;99.90;;;;;;5014189;28;20044;-70
2022/01/21 13:01:03;;;;;;;13.20;4.30;;;6.80;99.90;;;;;;5020970;28;20385;-69
2022/01/21 13:03:33;;;;;;;17.40;2.73;;;6.60;99.90;;;;;;5008576;28;20411;-69
2022/01/21 13:06:02;;;;;;;17.90;3.77;;;6.70;99.90;;;;;;5008587;28;20022;-69
2022/01/21 13:08:35;;;;;;;11.07;3.43;;;6.70;99.90;;;;;;5015538;28;20414;-70
2022/01/21 13:11:20;;;;;;;16.90;3.13;;;6.70;99.90;;;;;;5008911;28;20037;-69
2022/01/21 13:13:51;;;;;;;12.97;3.17;;;6.80;99.90;;;;;;5022650;28;20221;-69
2022/01/21 13:16:24;;;;;;;13.77;3.03;;;6.60;99.90;;;;;;5026437;28;20100;-70
2022/01/21 13:18:57;;;;;;;15.52;3.90;;;6.60;99.90;;;;;;5026311;28;20040;-69
2022/01/21 13:21:23;;;;;;;14.37;3.27;;;;;;;;;;5025772;28;20051;-69
2022/01/21 13:23:56;;;;;;;15.70;3.67;;;6.70;99.90;;;;;;5025847;28;20025;-69
2022/01/21 13:26:30;;;;;;;16.60;3.70;;;6.60;99.90;;;;;;5026104;28;20029;-69
2022/01/21 13:28:58;;;;;;;19.25;4.22;;;6.80;99.90;;;;;;5026619;28;20036;-69
2022/01/21 13:31:24;;;;;;;7.97;3.07;;;6.70;99.90;;;;;;5023237;28;20040;-69
2022/01/21 13:33:50;;;;;;;10.90;3.10;;;6.80;99.90;;;;;;5026292;28;20052;-69
2022/01/21 13:36:39;;;;;;;11.40;2.87;;;6.60;99.90;;;;;;5026016;28;20052;-69
2022/01/21 13:39:20;;;;;;;6.77;2.37;;;6.80;99.90;;;;;;5023559;28;20093;-69
2022/01/21 13:41:56;;;;;;;10.50;2.73;;;6.80;99.90;;;;;;5026260;28;20022;-69
2022/01/21 13:44:27;;;;;;;8.70;2.70;;;6.90;99.90;;;;;;5025034;28;20017;-69
2022/01/21 13:46:54;;;;;;;16.53;2.67;;;6.80;99.90;;;;;;5026331;28;20423;-69
2022/01/21 13:49:21;;;;;;;11.87;2.70;;;6.90;99.90;;;;;;5026551;28;20112;-69
2022/01/21 13:52:04;;;;;;;9.53;2.53;;;6.90;99.90;;;;;;5025791;28;20044;-69
2022/01/21 13:54:37;;;;;;;13.63;3.40;;;7.00;99.90;;;;;;5029062;28;20120;-69
2022/01/21 13:57:04;;;;;;;12.70;2.53;;;6.90;99.90;;;;;;5024426;28;20071;-69
2022/01/21 13:59:31;;;;;;;18.30;2.50;;;6.90;99.90;;;;;;5025539;28;20160;-69
2022/01/21 14:02:02;;;;;;;10.03;2.40;;;7.00;99.90;;;;;;5027545;28;20041;-70
2022/01/21 14:04:28;;;;;;;6.67;2.47;;;;;;;;;;5030009;28;20021;-69
2022/01/21 14:06:54;;;;;;;9.47;2.30;;;7.00;99.90;;;;;;5011694;28;20029;-70
2022/01/21 14:09:24;;;;;;;15.63;2.53;;;7.40;99.90;;;;;;5030550;28;20026;-69